createdAt,value
2018-01-05T00:02:15.179Z,8.90
2018-01-05T00:04:46.114Z,8.90
2018-01-05T00:07:16.496Z,8.90
2018-01-05T00:09:47.837Z,8.90
2018-01-05T00:12:18.869Z,9.00
2018-01-05T00:14:50.489Z,9.10
2018-01-05T00:17:24.181Z,9.10
2018-01-05T00:19:56.097Z,9.20
2018-01-05T00:22:26.919Z,9.10
2018-01-05T00:24:58.456Z,9.10
2018-01-05T00:27:30.408Z,9.10
2018-01-05T00:30:00.820Z,9.10
2018-01-05T00:32:31.460Z,9.00
2018-01-05T00:35:02.905Z,9.10
2018-01-05T00:37:34.408Z,9.10
2018-01-05T00:40:04.836Z,9.10
2018-01-05T00:42:35.526Z,9.10
2018-01-05T00:45:06.793Z,8.90
2018-01-05T00:47:37.486Z,8.90
2018-01-05T00:50:08.296Z,9.00
2018-01-05T00:52:39.004Z,9.00
2018-01-05T00:55:10.295Z,9.00
2018-01-05T00:57:41.251Z,9.00
2018-01-05T01:00:11.754Z,9.10
2018-01-05T01:02:42.583Z,9.10
2018-01-05T01:05:13.342Z,9.00
2018-01-05T01:07:44.547Z,9.10
2018-01-05T01:10:14.983Z,9.10
2018-01-05T01:12:46.376Z,8.90
2018-01-05T01:15:17.356Z,8.80
2018-01-05T01:17:48.068Z,8.60
2018-01-05T01:20:18.823Z,8.70
2018-01-05T01:22:49.905Z,8.50
2018-01-05T01:25:20.664Z,8.50
2018-01-05T01:27:52.152Z,8.40
2018-01-05T01:30:23.134Z,8.40
2018-01-05T01:32:53.992Z,8.20
2018-01-05T01:35:24.954Z,8.20
2018-01-05T01:37:57.656Z,8.10
2018-01-05T01:40:28.668Z,8.20
2018-01-05T01:42:59.283Z,8.20
2018-01-05T01:45:29.997Z,8.20
2018-01-05T01:48:00.699Z,8.30
2018-01-05T01:50:31.291Z,8.30
2018-01-05T01:53:02.681Z,8.10
2018-01-05T01:55:33.705Z,8.10
2018-01-05T01:58:04.347Z,8.10
2018-01-05T02:00:34.895Z,8.00
2018-01-05T02:03:06.486Z,8.00
2018-01-05T02:05:38.703Z,8.00
2018-01-05T02:08:09.997Z,7.90
2018-01-05T02:10:42.505Z,7.70
2018-01-05T02:13:14.191Z,7.80
2018-01-05T02:15:44.762Z,7.70
2018-01-05T02:18:16.162Z,7.70
2018-01-05T02:20:47.390Z,7.70
2018-01-05T02:23:18.032Z,7.70
2018-01-05T02:25:48.687Z,7.70
2018-01-05T02:28:19.876Z,7.70
2018-01-05T02:30:51.276Z,7.60
2018-01-05T02:33:21.924Z,7.50
2018-01-05T02:35:52.639Z,7.50
2018-01-05T02:38:23.240Z,7.50
2018-01-05T02:40:55.013Z,7.40
2018-01-05T02:43:25.796Z,7.30
2018-01-05T02:45:56.843Z,7.30
2018-01-05T02:48:27.728Z,7.30
2018-01-05T02:50:59.050Z,7.20
2018-01-05T02:53:30.045Z,7.30
2018-01-05T02:56:00.689Z,7.30
2018-01-05T02:58:31.749Z,7.30
2018-01-05T03:01:02.820Z,7.30
2018-01-05T03:03:33.604Z,7.30
2018-01-05T03:06:04.929Z,7.40
2018-01-05T03:08:35.779Z,7.40
2018-01-05T03:11:06.802Z,7.40
2018-01-05T03:13:37.566Z,7.50
2018-01-05T03:16:08.201Z,7.50
2018-01-05T03:18:38.850Z,7.50
2018-01-05T03:21:09.500Z,7.40
2018-01-05T03:23:44.483Z,7.40
2018-01-05T03:26:16.625Z,7.30
2018-01-05T03:28:47.433Z,7.30
2018-01-05T03:31:18.054Z,7.30
2018-01-05T03:33:49.152Z,7.30
2018-01-05T03:36:19.922Z,7.30
2018-01-05T03:38:51.478Z,7.30
2018-01-05T03:41:22.307Z,7.30
2018-01-05T03:43:53.039Z,7.40
2018-01-05T03:46:23.473Z,7.50
2018-01-05T03:48:54.596Z,7.50
2018-01-05T03:51:25.240Z,7.40
2018-01-05T03:53:56.263Z,7.30
2018-01-05T03:56:27.183Z,7.30
2018-01-05T03:58:57.923Z,7.30
2018-01-05T04:01:28.807Z,7.30
2018-01-05T04:04:00.035Z,7.20
2018-01-05T04:06:30.537Z,7.20
2018-01-05T04:09:03.153Z,7.30
2018-01-05T04:11:33.665Z,7.40
2018-01-05T04:14:04.152Z,7.40
2018-01-05T04:16:34.814Z,7.40
2018-01-05T04:19:06.551Z,7.00
2018-01-05T04:21:37.936Z,7.10
2018-01-05T04:24:08.778Z,7.10
2018-01-05T04:26:39.239Z,7.30
2018-01-05T04:29:10.635Z,7.30
2018-01-05T04:31:41.061Z,7.00
2018-01-05T04:34:12.094Z,6.80
2018-01-05T04:36:44.336Z,6.80
2018-01-05T04:39:15.574Z,6.60
2018-01-05T04:41:46.385Z,6.60
2018-01-05T04:44:16.683Z,6.70
2018-01-05T04:46:47.058Z,6.70
2018-01-05T04:49:17.929Z,6.80
2018-01-05T04:51:48.695Z,6.80
2018-01-05T04:54:19.609Z,6.80
2018-01-05T04:56:50.653Z,6.90
2018-01-05T05:02:56.131Z,7.40
2018-01-05T05:05:27.032Z,8.40
2018-01-05T05:07:58.403Z,8.60
2018-01-05T05:10:29.243Z,8.70
2018-01-05T05:12:59.978Z,8.70
2018-01-05T05:15:30.551Z,8.60
2018-01-05T05:18:02.023Z,7.80
2018-01-05T05:20:32.535Z,7.80
2018-01-05T05:23:03.294Z,7.70
2018-01-05T05:25:33.829Z,7.50
2018-01-05T05:28:04.316Z,7.50
2018-01-05T05:30:35.016Z,7.40
2018-01-05T05:33:07.161Z,7.30
2018-01-05T05:35:39.632Z,7.20
2018-01-05T05:38:10.570Z,7.10
2018-01-05T05:40:41.358Z,7.00
2018-01-05T05:43:12.003Z,6.90
2018-01-05T05:45:49.664Z,6.80
2018-01-05T05:48:27.859Z,6.80
2018-01-05T05:50:58.319Z,6.60
2018-01-05T05:53:29.705Z,6.70
2018-01-05T05:56:01.461Z,6.70
2018-01-05T05:58:39.937Z,6.60
2018-01-05T06:01:28.275Z,6.50
2018-01-05T06:04:03.217Z,6.60
2018-01-05T06:09:36.218Z,6.60
2018-01-05T06:12:16.105Z,6.50
2018-01-05T06:14:55.219Z,6.50
2018-01-05T06:17:49.931Z,6.40
2018-01-05T06:20:36.819Z,6.40
2018-01-05T06:23:18.325Z,6.40
2018-01-05T06:26:01.501Z,6.30
2018-01-05T06:28:52.624Z,6.30
2018-01-05T06:31:32.747Z,6.30
2018-01-05T06:34:49.772Z,6.30
2018-01-05T06:40:51.801Z,6.40
2018-01-05T06:43:24.319Z,6.40
2018-01-05T06:46:05.214Z,6.40
2018-01-05T06:48:40.068Z,6.40
2018-01-05T06:51:35.776Z,6.50
2018-01-05T06:54:11.322Z,6.50
2018-01-05T06:56:43.558Z,6.50
2018-01-05T06:59:15.978Z,6.50
2018-01-05T07:01:53.560Z,6.40
2018-01-05T07:05:14.340Z,6.30
2018-01-05T07:07:45.806Z,6.00
2018-01-05T07:10:20.974Z,5.90
2018-01-05T07:12:54.126Z,6.00
2018-01-05T07:15:24.913Z,6.00
2018-01-05T07:17:55.638Z,5.90
2018-01-05T07:20:27.038Z,5.90
2018-01-05T07:22:58.102Z,5.90
2018-01-05T07:25:28.311Z,5.90
2018-01-05T07:27:58.855Z,6.00
2018-01-05T07:30:29.411Z,6.20
2018-01-05T07:33:02.919Z,6.40
2018-01-05T07:35:52.201Z,6.40
2018-01-05T07:38:24.762Z,6.50
2018-01-05T07:40:56.734Z,6.60
2018-01-05T07:47:22.339Z,6.60
2018-01-05T07:50:05.530Z,6.60
2018-01-05T07:52:42.325Z,6.70
2018-01-05T07:55:13.493Z,6.70
2018-01-05T07:57:46.552Z,6.80
2018-01-05T08:00:18.279Z,6.80
2018-01-05T08:04:12.798Z,6.70
2018-01-05T08:07:27.012Z,6.80
2018-01-05T08:09:58.518Z,6.90
2018-01-05T08:12:36.107Z,6.90
2018-01-05T08:15:07.796Z,7.00
2018-01-05T08:17:39.525Z,7.00
2018-01-05T08:20:10.605Z,7.10
2018-01-05T08:22:42.270Z,7.10
2018-01-05T08:25:14.209Z,7.10
2018-01-05T08:27:47.457Z,7.10
2018-01-05T08:30:18.150Z,7.10
2018-01-05T08:32:50.699Z,7.00
2018-01-05T08:35:21.332Z,7.00
2018-01-05T08:37:51.707Z,7.10
2018-01-05T08:40:22.873Z,7.20
2018-01-05T08:42:53.717Z,7.20
2018-01-05T08:45:24.643Z,7.20
2018-01-05T08:48:39.582Z,7.20
2018-01-05T08:51:12.814Z,7.00
2018-01-05T08:53:58.135Z,7.00
2018-01-05T08:56:41.818Z,6.90
2018-01-05T08:59:12.701Z,6.90
2018-01-05T09:01:43.367Z,7.00
2018-01-05T09:04:31.969Z,7.10
2018-01-05T09:07:04.059Z,7.10
2018-01-05T09:09:47.700Z,7.10
2018-01-05T09:12:29.208Z,7.00
2018-01-05T09:14:59.863Z,6.90
2018-01-05T09:17:30.671Z,6.80
2018-01-05T09:20:01.283Z,6.70
2018-01-05T09:22:33.712Z,6.80
2018-01-05T09:25:15.976Z,6.90
2018-01-05T09:27:47.286Z,6.90
2018-01-05T09:30:19.061Z,6.90
2018-01-05T09:32:50.033Z,7.00
2018-01-05T09:35:20.682Z,7.20
2018-01-05T09:37:55.874Z,7.20
2018-01-05T09:40:44.918Z,7.20
2018-01-05T09:43:23.650Z,7.10
2018-01-05T09:45:59.616Z,7.10
2018-01-05T09:49:13.818Z,7.10
2018-01-05T09:51:47.348Z,7.00
2018-01-05T09:54:19.536Z,7.10
2018-01-05T09:56:51.732Z,7.20
2018-01-05T09:59:24.550Z,7.20
2018-01-05T10:02:00.546Z,7.30
2018-01-05T10:04:49.295Z,7.70
2018-01-05T10:07:28.324Z,8.00
2018-01-05T10:10:00.462Z,7.90
2018-01-05T10:12:34.912Z,8.50
2018-01-05T10:15:07.327Z,8.70
2018-01-05T10:17:42.596Z,9.10
2018-01-05T10:20:13.406Z,9.00
2018-01-05T10:23:00.536Z,9.50
2018-01-05T10:25:33.554Z,9.90
2018-01-05T10:28:05.079Z,10.00
2018-01-05T10:31:22.765Z,10.10
2018-01-05T10:33:53.989Z,10.20
2018-01-05T10:36:25.397Z,10.50
2018-01-05T10:38:56.934Z,10.50
2018-01-05T10:41:27.748Z,10.80
2018-01-05T10:43:58.935Z,10.70
2018-01-05T10:46:33.936Z,10.90
2018-01-05T10:49:09.217Z,11.30
2018-01-05T10:51:40.467Z,11.50
2018-01-05T10:54:11.265Z,11.10
2018-01-05T10:56:48.693Z,11.40
2018-01-05T10:59:23.330Z,11.70
2018-01-05T11:01:55.244Z,11.80
2018-01-05T11:04:43.028Z,12.00
2018-01-05T11:07:14.137Z,12.10
2018-01-05T11:09:46.974Z,12.00
2018-01-05T11:12:19.728Z,11.70
2018-01-05T11:14:50.017Z,11.50
2018-01-05T11:17:22.609Z,11.40
2018-01-05T11:19:54.402Z,11.30
2018-01-05T11:22:25.731Z,11.00
2018-01-05T11:25:25.351Z,10.90
2018-01-05T11:27:57.808Z,10.90
2018-01-05T11:30:28.483Z,11.10
2018-01-05T11:33:03.293Z,11.50
2018-01-05T11:35:34.338Z,11.70
2018-01-05T11:38:09.699Z,11.80
2018-01-05T11:40:39.822Z,11.60
2018-01-05T11:43:09.961Z,11.40
2018-01-05T11:45:40.452Z,11.20
2018-01-05T11:48:11.686Z,11.20
2018-01-05T11:50:57.323Z,11.40
2018-01-05T11:53:36.105Z,11.60
2018-01-05T11:56:07.905Z,11.90
2018-01-05T11:59:25.964Z,11.90
2018-01-05T12:01:57.912Z,11.90
2018-01-05T12:04:32.896Z,11.70
2018-01-05T12:07:08.480Z,11.70
2018-01-05T12:09:42.438Z,11.30
2018-01-05T12:12:18.621Z,11.10
2018-01-05T12:15:23.520Z,10.90
2018-01-05T12:17:56.410Z,10.90
2018-01-05T12:23:40.823Z,10.60
2018-01-05T12:26:51.036Z,10.50
2018-01-05T12:29:29.196Z,10.50
2018-01-05T12:31:59.919Z,10.30
2018-01-05T12:34:38.217Z,10.40
2018-01-05T12:37:20.957Z,10.30
2018-01-05T12:39:52.364Z,10.30
2018-01-05T12:43:42.192Z,10.40
2018-01-05T12:46:32.415Z,10.50
2018-01-05T12:49:08.562Z,10.40
2018-01-05T12:52:05.426Z,10.30
2018-01-05T12:55:29.720Z,10.20
2018-01-05T12:58:00.356Z,10.10
2018-01-05T13:00:32.755Z,10.50
2018-01-05T13:03:13.049Z,10.70
2018-01-05T13:05:47.233Z,10.90
2018-01-05T13:08:18.422Z,10.50
2018-01-05T13:14:07.947Z,10.50
2018-01-05T13:16:39.284Z,10.60
2018-01-05T13:19:14.888Z,10.50
2018-01-05T13:21:47.911Z,10.50
2018-01-05T13:24:22.365Z,10.40
2018-01-05T13:26:53.357Z,10.50
2018-01-05T13:30:30.984Z,10.50
2018-01-05T13:36:36.489Z,10.30
2018-01-05T13:39:08.644Z,10.10
2018-01-05T13:41:41.147Z,10.10
2018-01-05T13:44:11.613Z,10.00
2018-01-05T13:46:44.384Z,9.80
2018-01-05T13:49:17.990Z,9.80
2018-01-05T13:51:49.077Z,9.90
2018-01-05T13:54:37.771Z,10.00
2018-01-05T13:57:10.761Z,10.00
2018-01-05T13:59:41.239Z,9.90
2018-01-05T14:02:11.707Z,9.80
2018-01-05T14:04:44.979Z,9.60
2018-01-05T14:07:17.772Z,9.60
2018-01-05T14:10:05.681Z,9.50
2018-01-05T14:12:41.753Z,9.50
2018-01-05T14:15:14.473Z,9.50
2018-01-05T14:17:46.703Z,9.60
2018-01-05T14:23:38.064Z,9.30
2018-01-05T14:26:13.134Z,9.40
2018-01-05T14:28:44.136Z,9.40
2018-01-05T14:31:15.340Z,9.30
2018-01-05T14:34:05.059Z,9.30
2018-01-05T14:36:35.774Z,9.20
2018-01-05T14:39:10.157Z,9.20
2018-01-05T14:41:47.406Z,9.20
2018-01-05T14:44:18.210Z,9.20
2018-01-05T14:46:48.741Z,9.10
2018-01-05T14:49:50.752Z,9.10
2018-01-05T14:52:24.165Z,9.00
2018-01-05T14:54:57.941Z,9.00
2018-01-05T14:57:28.851Z,9.00
2018-01-05T15:00:04.369Z,9.00
2018-01-05T15:02:35.884Z,8.80
2018-01-05T15:05:06.273Z,8.80
2018-01-05T15:08:02.574Z,8.70
2018-01-05T15:10:33.507Z,8.60
2018-01-05T15:13:04.556Z,8.70
2018-01-05T15:15:36.344Z,8.70
2018-01-05T15:18:16.295Z,8.70
2018-01-05T15:20:52.007Z,8.60
2018-01-05T15:23:23.438Z,8.40
2018-01-05T15:25:54.970Z,8.40
2018-01-05T15:28:36.230Z,8.40
2018-01-05T15:31:12.360Z,8.40
2018-01-05T15:33:43.462Z,8.30
2018-01-05T15:36:16.821Z,8.20
2018-01-05T15:38:48.878Z,8.20
2018-01-05T15:41:19.889Z,8.20
2018-01-05T15:47:27.187Z,8.00
2018-01-05T15:50:03.532Z,7.90
2018-01-05T15:53:23.196Z,7.90
2018-01-05T15:55:53.650Z,7.80
2018-01-05T15:58:26.814Z,7.70
2018-01-05T16:01:02.301Z,7.70
2018-01-05T16:03:33.494Z,7.60
2018-01-05T16:06:05.086Z,7.70
2018-01-05T16:08:35.768Z,7.60
2018-01-05T16:11:20.650Z,7.50
2018-01-05T16:13:55.295Z,7.60
2018-01-05T16:16:26.884Z,7.50
2018-01-05T16:18:57.718Z,7.70
2018-01-05T16:21:28.350Z,7.80
2018-01-05T16:24:00.740Z,7.80
2018-01-05T16:26:31.956Z,7.80
2018-01-05T16:29:02.893Z,7.60
2018-01-05T16:31:35.656Z,7.60
2018-01-05T16:34:13.179Z,7.60
2018-01-05T16:36:55.325Z,7.60
2018-01-05T16:39:38.684Z,7.50
2018-01-05T16:42:10.639Z,7.60
2018-01-05T16:45:30.768Z,7.60
2018-01-05T16:48:07.395Z,7.60
2018-01-05T16:50:39.256Z,7.70
2018-01-05T16:53:29.544Z,7.70
2018-01-05T16:56:01.416Z,7.60
2018-01-05T16:58:33.178Z,7.60
2018-01-05T17:01:03.744Z,7.60
2018-01-05T17:03:34.388Z,7.40
2018-01-05T17:06:05.913Z,7.50
2018-01-05T17:08:37.232Z,7.50
2018-01-05T17:11:09.397Z,7.50
2018-01-05T17:13:40.540Z,7.50
2018-01-05T17:16:12.930Z,7.40
2018-01-05T17:18:44.136Z,7.40
2018-01-05T17:21:14.767Z,7.40
2018-01-05T17:23:45.880Z,7.40
2018-01-05T17:26:16.922Z,7.50
2018-01-05T17:28:48.382Z,7.50
2018-01-05T17:31:22.647Z,7.50
2018-01-05T17:33:53.766Z,7.40
2018-01-05T17:36:24.753Z,7.50
2018-01-05T17:38:55.323Z,7.40
2018-01-05T17:41:26.311Z,7.40
2018-01-05T17:44:02.140Z,7.40
2018-01-05T17:46:35.413Z,7.30
2018-01-05T17:49:07.115Z,7.30
2018-01-05T17:52:01.929Z,7.20
2018-01-05T17:54:34.189Z,7.00
2018-01-05T17:57:06.245Z,7.00
2018-01-05T17:59:37.890Z,6.90
2018-01-05T18:02:09.878Z,7.00
2018-01-05T18:04:46.991Z,7.00
2018-01-05T18:07:25.803Z,6.80
2018-01-05T18:09:57.447Z,6.90
2018-01-05T18:12:30.091Z,7.10
2018-01-05T18:15:03.288Z,7.10
2018-01-05T18:17:34.777Z,7.10
2018-01-05T18:20:05.690Z,7.10
2018-01-05T18:22:51.479Z,7.10
2018-01-05T18:25:34.014Z,7.10
2018-01-05T18:28:07.268Z,7.10
2018-01-05T18:30:39.041Z,7.10
2018-01-05T18:33:10.178Z,7.20
2018-01-05T18:35:43.394Z,7.20
2018-01-05T18:38:14.308Z,7.20
2018-01-05T18:40:46.759Z,7.20
2018-01-05T18:43:21.442Z,7.30
2018-01-05T18:45:52.713Z,7.30
2018-01-05T18:48:24.059Z,7.30
2018-01-05T18:50:55.295Z,7.30
2018-01-05T18:53:25.810Z,7.30
2018-01-05T18:56:10.840Z,7.10
2018-01-05T18:58:41.695Z,7.10
2018-01-05T19:01:17.440Z,7.00
2018-01-05T19:03:49.822Z,6.90
2018-01-05T19:06:23.882Z,6.80
2018-01-05T19:08:54.875Z,6.80
2018-01-05T19:11:25.664Z,6.90
2018-01-05T19:13:56.511Z,6.70
2018-01-05T19:16:27.607Z,6.80
2018-01-05T19:19:04.859Z,6.70
2018-01-05T19:21:36.981Z,6.60
2018-01-05T19:24:08.211Z,6.60
2018-01-05T19:26:39.521Z,6.60
2018-01-05T19:29:10.592Z,6.60
2018-01-05T19:31:42.842Z,6.70
2018-01-05T19:34:14.777Z,6.70
2018-01-05T19:36:50.701Z,6.70
2018-01-05T19:39:21.659Z,6.70
2018-01-05T19:41:52.968Z,6.70
2018-01-05T19:44:24.051Z,6.60
2018-01-05T19:46:54.440Z,6.60
2018-01-05T19:49:24.803Z,6.50
2018-01-05T19:51:55.665Z,6.50
2018-01-05T19:54:27.247Z,6.50
2018-01-05T19:56:57.961Z,6.60
2018-01-05T19:59:29.928Z,6.40
2018-01-05T20:02:00.546Z,6.40
2018-01-05T20:04:31.605Z,6.40
2018-01-05T20:07:03.316Z,6.50
2018-01-05T20:09:35.160Z,6.50
2018-01-05T20:12:12.716Z,6.30
2018-01-05T20:14:47.714Z,6.30
2018-01-05T20:17:19.466Z,6.20
2018-01-05T20:19:51.580Z,6.30
2018-01-05T20:22:23.264Z,6.30
2018-01-05T20:24:55.202Z,6.40
2018-01-05T20:30:54.632Z,6.50
2018-01-05T20:33:25.750Z,6.50
2018-01-05T20:35:56.005Z,6.40
2018-01-05T20:38:28.597Z,6.40
2018-01-05T20:41:00.318Z,6.40
2018-01-05T20:43:37.146Z,6.40
2018-01-05T20:46:12.849Z,6.40
2018-01-05T20:49:11.965Z,6.30
2018-01-05T20:51:51.193Z,6.20
2018-01-05T20:54:23.571Z,6.20
2018-01-05T20:56:57.057Z,6.30
2018-01-05T20:59:38.889Z,6.30
2018-01-05T21:02:10.085Z,6.40
2018-01-05T21:04:44.544Z,6.40
2018-01-05T21:07:15.589Z,6.50
2018-01-05T21:09:45.857Z,6.50
2018-01-05T21:12:16.434Z,6.50
2018-01-05T21:14:47.830Z,6.50
2018-01-05T21:17:21.526Z,6.60
2018-01-05T21:19:51.789Z,6.60
2018-01-05T21:22:22.767Z,6.60
2018-01-05T21:24:55.731Z,6.60
2018-01-05T21:27:26.744Z,6.60
2018-01-05T21:29:58.416Z,6.70
2018-01-05T21:32:29.213Z,6.70
2018-01-05T21:35:03.785Z,6.60
2018-01-05T21:37:36.986Z,6.60
2018-01-05T21:40:08.809Z,6.60
2018-01-05T21:42:39.999Z,6.60
2018-01-05T21:45:18.282Z,6.60
2018-01-05T21:47:49.110Z,6.60
2018-01-05T21:50:21.693Z,6.60
2018-01-05T21:52:52.747Z,6.60
2018-01-05T21:55:30.431Z,6.60
2018-01-05T21:58:02.543Z,6.60
2018-01-05T22:00:34.236Z,6.60
2018-01-05T22:03:05.597Z,6.80
2018-01-05T22:05:36.867Z,6.80
2018-01-05T22:08:10.705Z,6.70
2018-01-05T22:10:56.561Z,6.80
2018-01-05T22:13:43.069Z,6.90
2018-01-05T22:16:14.248Z,7.00
2018-01-05T22:18:45.556Z,6.90
2018-01-05T22:21:17.167Z,6.90
2018-01-05T22:23:59.776Z,6.90
2018-01-05T22:26:31.712Z,6.90
2018-01-05T22:29:02.406Z,6.70
2018-01-05T22:31:35.231Z,6.80
2018-01-05T22:34:09.266Z,6.80
2018-01-05T22:36:40.202Z,6.80
2018-01-05T22:39:14.968Z,6.90
2018-01-05T22:41:48.953Z,6.80
2018-01-05T22:44:19.745Z,6.70
2018-01-05T22:46:51.925Z,6.70
2018-01-05T22:49:23.219Z,6.70
2018-01-05T22:51:53.383Z,6.60
2018-01-05T22:54:23.750Z,6.70
2018-01-05T22:56:54.694Z,6.80
2018-01-05T22:59:26.425Z,6.80
2018-01-05T23:01:57.217Z,6.90
2018-01-05T23:04:29.249Z,6.90
2018-01-05T23:07:01.019Z,6.90
2018-01-05T23:09:32.660Z,6.50
2018-01-05T23:12:09.950Z,6.60
2018-01-05T23:14:42.847Z,6.60
2018-01-05T23:17:19.059Z,6.50
2018-01-05T23:19:49.741Z,6.50
2018-01-05T23:22:20.438Z,6.40
2018-01-05T23:24:51.330Z,6.40
2018-01-05T23:27:23.557Z,6.30
2018-01-05T23:29:55.004Z,6.30
2018-01-05T23:32:26.740Z,6.10
2018-01-05T23:34:59.141Z,6.10
2018-01-05T23:37:32.936Z,6.00
2018-01-05T23:40:11.270Z,6.00
2018-01-05T23:42:42.278Z,5.90
2018-01-05T23:45:29.848Z,5.90
2018-01-05T23:48:17.608Z,5.80
2018-01-05T23:50:51.323Z,6.00
2018-01-05T23:53:31.721Z,6.10
2018-01-05T23:56:04.487Z,6.10
2018-01-05T23:58:40.753Z,6.10
